sensor_id;sensor_type;location;lat;lon;timestamp;P1;durP1;ratioP1;P2;durP2;ratioP2
54665;SDS011;40566;50.006;36.180;2023-06-14T00:03:12;10.77;;;4.57;;
54665;SDS011;40566;50.006;36.180;2023-06-14T00:08:17;11.77;;;5.20;;
54665;SDS011;40566;50.006;36.180;2023-06-14T00:13:19;12.23;;;5.00;;
54665;SDS011;40566;50.006;36.180;2023-06-14T00:18:20;14.30;;;5.68;;
54665;SDS011;40566;50.006;36.180;2023-06-14T00:23:24;14.57;;;5.60;;
54665;SDS011;40566;50.006;36.180;2023-06-14T00:28:24;12.73;;;5.93;;
54665;SDS011;40566;50.006;36.180;2023-06-14T00:33:25;11.45;;;5.88;;
54665;SDS011;40566;50.006;36.180;2023-06-14T00:38:26;14.27;;;6.10;;
54665;SDS011;40566;50.006;36.180;2023-06-14T00:43:26;16.02;;;6.35;;
54665;SDS011;40566;50.006;36.180;2023-06-14T00:48:27;14.73;;;6.45;;
54665;SDS011;40566;50.006;36.180;2023-06-14T00:53:29;13.35;;;6.05;;
54665;SDS011;40566;50.006;36.180;2023-06-14T00:58:34;19.90;;;6.72;;
54665;SDS011;40566;50.006;36.180;2023-06-14T01:03:35;17.02;;;6.65;;
54665;SDS011;40566;50.006;36.180;2023-06-14T01:13:52;13.82;;;6.00;;
54665;SDS011;40566;50.006;36.180;2023-06-14T01:18:54;14.38;;;6.00;;
54665;SDS011;40566;50.006;36.180;2023-06-14T01:23:56;11.63;;;5.68;;
54665;SDS011;40566;50.006;36.180;2023-06-14T01:28:57;15.65;;;5.65;;
54665;SDS011;40566;50.006;36.180;2023-06-14T01:33:58;12.40;;;6.10;;
54665;SDS011;40566;50.006;36.180;2023-06-14T01:38:59;12.30;;;5.82;;
54665;SDS011;40566;50.006;36.180;2023-06-14T01:44:00;14.73;;;5.97;;
54665;SDS011;40566;50.006;36.180;2023-06-14T01:49:02;11.30;;;6.07;;
54665;SDS011;40566;50.006;36.180;2023-06-14T01:54:02;15.40;;;5.82;;
54665;SDS011;40566;50.006;36.180;2023-06-14T01:59:03;12.90;;;6.15;;
54665;SDS011;40566;50.006;36.180;2023-06-14T02:04:04;11.52;;;5.70;;
54665;SDS011;40566;50.006;36.180;2023-06-14T02:09:04;11.55;;;5.93;;
54665;SDS011;40566;50.006;36.180;2023-06-14T02:14:05;13.10;;;5.50;;
54665;SDS011;40566;50.006;36.180;2023-06-14T02:19:07;13.68;;;5.93;;
54665;SDS011;40566;50.006;36.180;2023-06-14T02:24:08;13.75;;;6.40;;
54665;SDS011;40566;50.006;36.180;2023-06-14T02:29:08;10.52;;;5.55;;
54665;SDS011;40566;50.006;36.180;2023-06-14T02:34:11;10.88;;;5.32;;
54665;SDS011;40566;50.006;36.180;2023-06-14T02:39:11;11.55;;;5.63;;
54665;SDS011;40566;50.006;36.180;2023-06-14T02:44:13;10.30;;;5.07;;
54665;SDS011;40566;50.006;36.180;2023-06-14T02:49:15;11.57;;;5.47;;
54665;SDS011;40566;50.006;36.180;2023-06-14T02:54:15;10.00;;;5.32;;
54665;SDS011;40566;50.006;36.180;2023-06-14T02:59:16;12.00;;;5.88;;
54665;SDS011;40566;50.006;36.180;2023-06-14T03:04:17;13.02;;;5.47;;
54665;SDS011;40566;50.006;36.180;2023-06-14T03:09:17;11.20;;;4.63;;
54665;SDS011;40566;50.006;36.180;2023-06-14T03:14:19;12.82;;;5.72;;
54665;SDS011;40566;50.006;36.180;2023-06-14T03:19:21;11.70;;;5.53;;
54665;SDS011;40566;50.006;36.180;2023-06-14T03:24:22;12.30;;;6.13;;
54665;SDS011;40566;50.006;36.180;2023-06-14T03:29:24;13.88;;;5.90;;
54665;SDS011;40566;50.006;36.180;2023-06-14T03:34:25;11.05;;;5.40;;
54665;SDS011;40566;50.006;36.180;2023-06-14T03:39:26;16.90;;;6.35;;
54665;SDS011;40566;50.006;36.180;2023-06-14T03:44:26;12.88;;;5.70;;
54665;SDS011;40566;50.006;36.180;2023-06-14T03:49:27;14.00;;;5.72;;
54665;SDS011;40566;50.006;36.180;2023-06-14T03:54:28;13.80;;;5.57;;
54665;SDS011;40566;50.006;36.180;2023-06-14T03:59:28;12.27;;;6.28;;
54665;SDS011;40566;50.006;36.180;2023-06-14T04:04:29;13.38;;;6.40;;
54665;SDS011;40566;50.006;36.180;2023-06-14T04:09:29;11.90;;;5.90;;
54665;SDS011;40566;50.006;36.180;2023-06-14T04:14:30;13.60;;;6.35;;
54665;SDS011;40566;50.006;36.180;2023-06-14T04:19:33;14.70;;;5.95;;
54665;SDS011;40566;50.006;36.180;2023-06-14T04:24:35;17.17;;;6.07;;
54665;SDS011;40566;50.006;36.180;2023-06-14T04:29:35;13.18;;;6.03;;
54665;SDS011;40566;50.006;36.180;2023-06-14T04:34:36;18.02;;;7.10;;
54665;SDS011;40566;50.006;36.180;2023-06-14T04:39:37;16.77;;;8.05;;
54665;SDS011;40566;50.006;36.180;2023-06-14T04:44:38;17.73;;;9.02;;
54665;SDS011;40566;50.006;36.180;2023-06-14T04:49:40;18.60;;;10.60;;
54665;SDS011;40566;50.006;36.180;2023-06-14T04:54:41;19.08;;;10.65;;
54665;SDS011;40566;50.006;36.180;2023-06-14T04:59:44;18.65;;;10.88;;
54665;SDS011;40566;50.006;36.180;2023-06-14T05:04:45;18.55;;;11.10;;
54665;SDS011;40566;50.006;36.180;2023-06-14T05:09:48;20.65;;;10.85;;
54665;SDS011;40566;50.006;36.180;2023-06-14T05:14:49;21.30;;;11.98;;
54665;SDS011;40566;50.006;36.180;2023-06-14T05:19:50;23.17;;;11.02;;
54665;SDS011;40566;50.006;36.180;2023-06-14T05:24:51;22.90;;;11.57;;
54665;SDS011;40566;50.006;36.180;2023-06-14T05:29:52;20.17;;;10.77;;
54665;SDS011;40566;50.006;36.180;2023-06-14T05:34:55;23.63;;;11.60;;
54665;SDS011;40566;50.006;36.180;2023-06-14T05:39:56;17.75;;;11.27;;
54665;SDS011;40566;50.006;36.180;2023-06-14T05:44:57;25.67;;;12.93;;
54665;SDS011;40566;50.006;36.180;2023-06-14T05:49:57;25.00;;;13.30;;
54665;SDS011;40566;50.006;36.180;2023-06-14T05:54:58;20.88;;;12.30;;
54665;SDS011;40566;50.006;36.180;2023-06-14T06:00:00;23.63;;;12.60;;
54665;SDS011;40566;50.006;36.180;2023-06-14T06:05:06;22.17;;;13.10;;
54665;SDS011;40566;50.006;36.180;2023-06-14T06:10:07;20.67;;;11.50;;
54665;SDS011;40566;50.006;36.180;2023-06-14T06:15:11;22.05;;;12.93;;
54665;SDS011;40566;50.006;36.180;2023-06-14T06:20:12;24.45;;;12.25;;
54665;SDS011;40566;50.006;36.180;2023-06-14T06:25:13;22.80;;;12.15;;
54665;SDS011;40566;50.006;36.180;2023-06-14T06:30:15;24.70;;;12.77;;
54665;SDS011;40566;50.006;36.180;2023-06-14T06:35:16;28.20;;;14.60;;
54665;SDS011;40566;50.006;36.180;2023-06-14T06:40:16;22.20;;;13.07;;
54665;SDS011;40566;50.006;36.180;2023-06-14T06:45:17;22.73;;;14.07;;
54665;SDS011;40566;50.006;36.180;2023-06-14T06:50:18;26.48;;;14.23;;
54665;SDS011;40566;50.006;36.180;2023-06-14T06:55:20;22.95;;;14.93;;
54665;SDS011;40566;50.006;36.180;2023-06-14T07:00:20;29.05;;;14.73;;
54665;SDS011;40566;50.006;36.180;2023-06-14T07:05:21;31.85;;;15.25;;
54665;SDS011;40566;50.006;36.180;2023-06-14T07:10:22;23.88;;;14.50;;
54665;SDS011;40566;50.006;36.180;2023-06-14T07:15:24;29.30;;;15.63;;
54665;SDS011;40566;50.006;36.180;2023-06-14T07:20:25;26.05;;;15.40;;
54665;SDS011;40566;50.006;36.180;2023-06-14T07:25:25;29.13;;;15.25;;
54665;SDS011;40566;50.006;36.180;2023-06-14T07:30:26;27.63;;;16.35;;
54665;SDS011;40566;50.006;36.180;2023-06-14T07:35:27;28.58;;;16.40;;
54665;SDS011;40566;50.006;36.180;2023-06-14T07:40:28;24.90;;;15.82;;
54665;SDS011;40566;50.006;36.180;2023-06-14T07:45:28;26.55;;;15.90;;
54665;SDS011;40566;50.006;36.180;2023-06-14T07:50:29;28.10;;;16.00;;
54665;SDS011;40566;50.006;36.180;2023-06-14T07:55:30;24.63;;;14.55;;
54665;SDS011;40566;50.006;36.180;2023-06-14T08:00:32;24.50;;;14.18;;
54665;SDS011;40566;50.006;36.180;2023-06-14T08:05:33;20.08;;;10.93;;
54665;SDS011;40566;50.006;36.180;2023-06-14T08:10:34;22.55;;;11.45;;
54665;SDS011;40566;50.006;36.180;2023-06-14T08:15:35;17.60;;;9.35;;
54665;SDS011;40566;50.006;36.180;2023-06-14T08:20:36;16.70;;;8.77;;
54665;SDS011;40566;50.006;36.180;2023-06-14T08:25:37;18.10;;;8.95;;
54665;SDS011;40566;50.006;36.180;2023-06-14T08:30:38;19.05;;;8.48;;
54665;SDS011;40566;50.006;36.180;2023-06-14T08:35:38;15.75;;;8.13;;
54665;SDS011;40566;50.006;36.180;2023-06-14T08:40:40;14.10;;;6.95;;
54665;SDS011;40566;50.006;36.180;2023-06-14T08:45:45;17.05;;;6.28;;
54665;SDS011;40566;50.006;36.180;2023-06-14T08:50:48;14.63;;;6.85;;
54665;SDS011;40566;50.006;36.180;2023-06-14T08:55:48;11.98;;;6.70;;
54665;SDS011;40566;50.006;36.180;2023-06-14T09:00:50;13.02;;;6.75;;
54665;SDS011;40566;50.006;36.180;2023-06-14T09:05:52;14.05;;;6.78;;
54665;SDS011;40566;50.006;36.180;2023-06-14T09:10:54;15.90;;;6.30;;
54665;SDS011;40566;50.006;36.180;2023-06-14T09:15:55;14.35;;;6.60;;
54665;SDS011;40566;50.006;36.180;2023-06-14T09:20:56;17.02;;;7.53;;
54665;SDS011;40566;50.006;36.180;2023-06-14T09:25:56;13.77;;;6.90;;
54665;SDS011;40566;50.006;36.180;2023-06-14T09:30:57;17.05;;;6.70;;
54665;SDS011;40566;50.006;36.180;2023-06-14T09:35:57;14.82;;;5.90;;
54665;SDS011;40566;50.006;36.180;2023-06-14T09:41:00;16.25;;;6.85;;
54665;SDS011;40566;50.006;36.180;2023-06-14T09:46:04;14.15;;;5.85;;
54665;SDS011;40566;50.006;36.180;2023-06-14T09:51:06;15.15;;;6.20;;
54665;SDS011;40566;50.006;36.180;2023-06-14T09:56:07;13.32;;;6.10;;
54665;SDS011;40566;50.006;36.180;2023-06-14T10:01:10;15.13;;;6.68;;
54665;SDS011;40566;50.006;36.180;2023-06-14T10:06:13;15.10;;;6.30;;
54665;SDS011;40566;50.006;36.180;2023-06-14T10:11:18;11.10;;;5.97;;
54665;SDS011;40566;50.006;36.180;2023-06-14T10:16:31;12.45;;;6.20;;
54665;SDS011;40566;50.006;36.180;2023-06-14T10:21:45;13.40;;;5.60;;
54665;SDS011;40566;50.006;36.180;2023-06-14T10:26:54;18.80;;;6.85;;
54665;SDS011;40566;50.006;36.180;2023-06-14T10:31:59;12.05;;;6.22;;
54665;SDS011;40566;50.006;36.180;2023-06-14T10:42:05;13.85;;;6.40;;
54665;SDS011;40566;50.006;36.180;2023-06-14T10:47:10;16.42;;;6.68;;
54665;SDS011;40566;50.006;36.180;2023-06-14T10:52:31;16.00;;;7.15;;
54665;SDS011;40566;50.006;36.180;2023-06-14T10:57:41;13.40;;;6.32;;
54665;SDS011;40566;50.006;36.180;2023-06-14T11:02:49;12.90;;;6.00;;
54665;SDS011;40566;50.006;36.180;2023-06-14T11:13:20;13.43;;;6.55;;
54665;SDS011;40566;50.006;36.180;2023-06-14T11:18:28;13.20;;;6.22;;
54665;SDS011;40566;50.006;36.180;2023-06-14T11:23:29;13.95;;;6.05;;
54665;SDS011;40566;50.006;36.180;2023-06-14T11:28:39;15.10;;;6.25;;
54665;SDS011;40566;50.006;36.180;2023-06-14T11:33:41;13.00;;;6.15;;
54665;SDS011;40566;50.006;36.180;2023-06-14T11:38:41;14.50;;;7.30;;
54665;SDS011;40566;50.006;36.180;2023-06-14T11:43:45;13.60;;;7.03;;
54665;SDS011;40566;50.006;36.180;2023-06-14T11:48:45;18.42;;;7.85;;
54665;SDS011;40566;50.006;36.180;2023-06-14T11:53:48;15.45;;;8.57;;
54665;SDS011;40566;50.006;36.180;2023-06-14T11:58:49;15.88;;;7.90;;
54665;SDS011;40566;50.006;36.180;2023-06-14T12:03:50;17.75;;;8.43;;
54665;SDS011;40566;50.006;36.180;2023-06-14T12:08:57;16.20;;;8.55;;
54665;SDS011;40566;50.006;36.180;2023-06-14T12:13:58;18.42;;;8.45;;
54665;SDS011;40566;50.006;36.180;2023-06-14T12:19:00;14.45;;;8.60;;
54665;SDS011;40566;50.006;36.180;2023-06-14T12:24:08;17.58;;;9.35;;
54665;SDS011;40566;50.006;36.180;2023-06-14T12:29:12;13.25;;;7.80;;
54665;SDS011;40566;50.006;36.180;2023-06-14T12:34:13;14.52;;;7.57;;
54665;SDS011;40566;50.006;36.180;2023-06-14T12:39:13;28.27;;;8.13;;
54665;SDS011;40566;50.006;36.180;2023-06-14T12:44:14;14.77;;;7.70;;
54665;SDS011;40566;50.006;36.180;2023-06-14T12:49:15;14.13;;;7.65;;
54665;SDS011;40566;50.006;36.180;2023-06-14T12:54:16;15.80;;;7.35;;
54665;SDS011;40566;50.006;36.180;2023-06-14T12:59:17;17.98;;;8.10;;
54665;SDS011;40566;50.006;36.180;2023-06-14T13:04:18;17.23;;;8.60;;
54665;SDS011;40566;50.006;36.180;2023-06-14T13:09:19;15.63;;;8.05;;
54665;SDS011;40566;50.006;36.180;2023-06-14T13:14:19;15.40;;;9.10;;
54665;SDS011;40566;50.006;36.180;2023-06-14T13:19:20;16.45;;;8.43;;
54665;SDS011;40566;50.006;36.180;2023-06-14T13:24:21;14.73;;;8.43;;
54665;SDS011;40566;50.006;36.180;2023-06-14T13:29:22;15.77;;;8.82;;
54665;SDS011;40566;50.006;36.180;2023-06-14T13:34:23;15.10;;;8.10;;
54665;SDS011;40566;50.006;36.180;2023-06-14T13:39:27;15.48;;;7.85;;
54665;SDS011;40566;50.006;36.180;2023-06-14T13:44:28;14.50;;;8.77;;
54665;SDS011;40566;50.006;36.180;2023-06-14T13:49:28;15.43;;;8.05;;
54665;SDS011;40566;50.006;36.180;2023-06-14T13:54:29;13.00;;;7.80;;
54665;SDS011;40566;50.006;36.180;2023-06-14T14:05:46;16.73;;;9.77;;
54665;SDS011;40566;50.006;36.180;2023-06-14T14:10:46;19.77;;;9.85;;
54665;SDS011;40566;50.006;36.180;2023-06-14T14:15:47;19.08;;;9.00;;
54665;SDS011;40566;50.006;36.180;2023-06-14T14:20:49;17.27;;;9.07;;
54665;SDS011;40566;50.006;36.180;2023-06-14T14:25:50;15.52;;;8.30;;
54665;SDS011;40566;50.006;36.180;2023-06-14T14:30:50;17.33;;;9.10;;
54665;SDS011;40566;50.006;36.180;2023-06-14T14:35:51;19.52;;;9.57;;
54665;SDS011;40566;50.006;36.180;2023-06-14T14:40:52;14.57;;;8.82;;
54665;SDS011;40566;50.006;36.180;2023-06-14T14:45:52;17.10;;;9.00;;
54665;SDS011;40566;50.006;36.180;2023-06-14T14:50:53;17.58;;;9.20;;
54665;SDS011;40566;50.006;36.180;2023-06-14T14:55:54;19.95;;;8.55;;
54665;SDS011;40566;50.006;36.180;2023-06-14T15:00:54;16.83;;;8.23;;
54665;SDS011;40566;50.006;36.180;2023-06-14T15:05:55;16.80;;;7.70;;
54665;SDS011;40566;50.006;36.180;2023-06-14T15:10:56;13.98;;;7.20;;
54665;SDS011;40566;50.006;36.180;2023-06-14T15:15:57;15.60;;;8.23;;
54665;SDS011;40566;50.006;36.180;2023-06-14T15:20:57;14.15;;;6.85;;
54665;SDS011;40566;50.006;36.180;2023-06-14T15:25:58;12.48;;;7.20;;
54665;SDS011;40566;50.006;36.180;2023-06-14T15:31:00;13.15;;;6.80;;
54665;SDS011;40566;50.006;36.180;2023-06-14T15:36:01;12.00;;;6.65;;
54665;SDS011;40566;50.006;36.180;2023-06-14T15:41:01;17.15;;;6.65;;
54665;SDS011;40566;50.006;36.180;2023-06-14T15:46:03;13.23;;;6.18;;
54665;SDS011;40566;50.006;36.180;2023-06-14T15:51:03;12.30;;;5.82;;
54665;SDS011;40566;50.006;36.180;2023-06-14T15:56:04;12.60;;;5.95;;
54665;SDS011;40566;50.006;36.180;2023-06-14T16:01:04;12.10;;;6.22;;
54665;SDS011;40566;50.006;36.180;2023-06-14T16:06:08;11.77;;;6.25;;
54665;SDS011;40566;50.006;36.180;2023-06-14T16:11:09;12.18;;;6.10;;
54665;SDS011;40566;50.006;36.180;2023-06-14T16:16:09;12.75;;;5.80;;
54665;SDS011;40566;50.006;36.180;2023-06-14T16:21:10;12.70;;;6.40;;
54665;SDS011;40566;50.006;36.180;2023-06-14T16:26:11;12.23;;;6.53;;
54665;SDS011;40566;50.006;36.180;2023-06-14T16:31:15;13.00;;;6.80;;
54665;SDS011;40566;50.006;36.180;2023-06-14T16:36:17;12.18;;;6.43;;
54665;SDS011;40566;50.006;36.180;2023-06-14T16:41:17;12.43;;;6.22;;
54665;SDS011;40566;50.006;36.180;2023-06-14T16:46:30;16.77;;;7.30;;
54665;SDS011;40566;50.006;36.180;2023-06-14T16:51:32;11.52;;;6.32;;
54665;SDS011;40566;50.006;36.180;2023-06-14T16:56:32;16.20;;;6.88;;
54665;SDS011;40566;50.006;36.180;2023-06-14T17:01:33;14.82;;;7.05;;
54665;SDS011;40566;50.006;36.180;2023-06-14T17:06:34;14.82;;;7.70;;
54665;SDS011;40566;50.006;36.180;2023-06-14T17:11:35;15.63;;;7.07;;
54665;SDS011;40566;50.006;36.180;2023-06-14T17:16:35;14.43;;;7.03;;
54665;SDS011;40566;50.006;36.180;2023-06-14T17:21:36;14.20;;;7.28;;
54665;SDS011;40566;50.006;36.180;2023-06-14T17:26:37;16.10;;;7.35;;
54665;SDS011;40566;50.006;36.180;2023-06-14T17:31:37;16.50;;;7.10;;
54665;SDS011;40566;50.006;36.180;2023-06-14T17:36:38;15.50;;;7.18;;
54665;SDS011;40566;50.006;36.180;2023-06-14T17:41:38;13.63;;;7.38;;
54665;SDS011;40566;50.006;36.180;2023-06-14T17:46:39;15.50;;;7.72;;
54665;SDS011;40566;50.006;36.180;2023-06-14T17:51:39;16.52;;;7.53;;
54665;SDS011;40566;50.006;36.180;2023-06-14T17:56:40;14.65;;;7.43;;
54665;SDS011;40566;50.006;36.180;2023-06-14T18:01:41;13.55;;;7.38;;
54665;SDS011;40566;50.006;36.180;2023-06-14T18:06:41;20.23;;;7.60;;
54665;SDS011;40566;50.006;36.180;2023-06-14T18:11:42;16.17;;;7.80;;
54665;SDS011;40566;50.006;36.180;2023-06-14T18:16:44;15.45;;;7.40;;
54665;SDS011;40566;50.006;36.180;2023-06-14T18:21:45;13.38;;;7.63;;
54665;SDS011;40566;50.006;36.180;2023-06-14T18:26:47;15.20;;;7.82;;
54665;SDS011;40566;50.006;36.180;2023-06-14T18:31:48;14.35;;;8.07;;
54665;SDS011;40566;50.006;36.180;2023-06-14T18:36:48;17.90;;;7.40;;
54665;SDS011;40566;50.006;36.180;2023-06-14T18:41:52;16.75;;;9.30;;
54665;SDS011;40566;50.006;36.180;2023-06-14T18:46:52;23.55;;;11.38;;
54665;SDS011;40566;50.006;36.180;2023-06-14T18:51:53;19.50;;;11.95;;
54665;SDS011;40566;50.006;36.180;2023-06-14T18:56:54;19.25;;;12.00;;
54665;SDS011;40566;50.006;36.180;2023-06-14T19:01:55;19.55;;;11.38;;
54665;SDS011;40566;50.006;36.180;2023-06-14T19:06:55;19.15;;;9.88;;
54665;SDS011;40566;50.006;36.180;2023-06-14T19:11:56;14.90;;;8.60;;
54665;SDS011;40566;50.006;36.180;2023-06-14T19:16:57;13.57;;;7.97;;
54665;SDS011;40566;50.006;36.180;2023-06-14T19:21:57;14.82;;;7.95;;
54665;SDS011;40566;50.006;36.180;2023-06-14T19:26:58;19.48;;;7.97;;
54665;SDS011;40566;50.006;36.180;2023-06-14T19:31:58;16.35;;;8.05;;
54665;SDS011;40566;50.006;36.180;2023-06-14T19:36:59;20.13;;;8.02;;
54665;SDS011;40566;50.006;36.180;2023-06-14T19:42:00;18.30;;;8.70;;
54665;SDS011;40566;50.006;36.180;2023-06-14T19:47:03;15.68;;;8.30;;
54665;SDS011;40566;50.006;36.180;2023-06-14T19:52:05;15.45;;;7.95;;
54665;SDS011;40566;50.006;36.180;2023-06-14T19:57:06;17.58;;;8.25;;
54665;SDS011;40566;50.006;36.180;2023-06-14T20:02:07;14.93;;;7.78;;
54665;SDS011;40566;50.006;36.180;2023-06-14T20:07:08;15.07;;;8.10;;
54665;SDS011;40566;50.006;36.180;2023-06-14T20:12:09;14.90;;;7.85;;
54665;SDS011;40566;50.006;36.180;2023-06-14T20:17:10;14.55;;;7.82;;
54665;SDS011;40566;50.006;36.180;2023-06-14T20:22:10;21.25;;;8.25;;
54665;SDS011;40566;50.006;36.180;2023-06-14T20:27:11;15.20;;;8.02;;
54665;SDS011;40566;50.006;36.180;2023-06-14T20:32:11;15.23;;;8.55;;
54665;SDS011;40566;50.006;36.180;2023-06-14T20:37:13;19.40;;;8.50;;
54665;SDS011;40566;50.006;36.180;2023-06-14T20:42:14;15.15;;;8.40;;
54665;SDS011;40566;50.006;36.180;2023-06-14T20:47:15;16.33;;;8.50;;
54665;SDS011;40566;50.006;36.180;2023-06-14T20:52:17;16.45;;;8.98;;
54665;SDS011;40566;50.006;36.180;2023-06-14T20:57:18;18.02;;;8.52;;
54665;SDS011;40566;50.006;36.180;2023-06-14T21:02:21;16.92;;;8.07;;
54665;SDS011;40566;50.006;36.180;2023-06-14T21:07:23;15.32;;;8.20;;
54665;SDS011;40566;50.006;36.180;2023-06-14T21:12:25;16.60;;;9.10;;
54665;SDS011;40566;50.006;36.180;2023-06-14T21:17:26;17.77;;;8.93;;
54665;SDS011;40566;50.006;36.180;2023-06-14T21:22:27;18.02;;;7.57;;
54665;SDS011;40566;50.006;36.180;2023-06-14T21:27:28;14.00;;;7.95;;
54665;SDS011;40566;50.006;36.180;2023-06-14T21:32:29;21.27;;;7.85;;
54665;SDS011;40566;50.006;36.180;2023-06-14T21:37:29;15.65;;;7.85;;
54665;SDS011;40566;50.006;36.180;2023-06-14T21:42:30;14.13;;;7.20;;
54665;SDS011;40566;50.006;36.180;2023-06-14T21:47:30;13.95;;;7.60;;
54665;SDS011;40566;50.006;36.180;2023-06-14T21:52:31;19.67;;;7.30;;
54665;SDS011;40566;50.006;36.180;2023-06-14T21:57:31;16.15;;;7.22;;
54665;SDS011;40566;50.006;36.180;2023-06-14T22:02:32;15.05;;;7.00;;
54665;SDS011;40566;50.006;36.180;2023-06-14T22:07:33;14.50;;;7.28;;
54665;SDS011;40566;50.006;36.180;2023-06-14T22:12:34;14.93;;;7.35;;
54665;SDS011;40566;50.006;36.180;2023-06-14T22:17:35;18.33;;;7.35;;
54665;SDS011;40566;50.006;36.180;2023-06-14T22:22:36;15.32;;;7.07;;
54665;SDS011;40566;50.006;36.180;2023-06-14T22:27:40;15.30;;;7.30;;
54665;SDS011;40566;50.006;36.180;2023-06-14T22:38:25;16.83;;;7.95;;
54665;SDS011;40566;50.006;36.180;2023-06-14T22:43:26;18.92;;;8.70;;
54665;SDS011;40566;50.006;36.180;2023-06-14T22:48:26;16.10;;;8.55;;
54665;SDS011;40566;50.006;36.180;2023-06-14T22:58:56;16.42;;;9.18;;
54665;SDS011;40566;50.006;36.180;2023-06-14T23:04:02;18.85;;;9.18;;
54665;SDS011;40566;50.006;36.180;2023-06-14T23:09:03;19.02;;;9.10;;
54665;SDS011;40566;50.006;36.180;2023-06-14T23:14:04;22.58;;;9.70;;
54665;SDS011;40566;50.006;36.180;2023-06-14T23:19:05;18.45;;;9.88;;
54665;SDS011;40566;50.006;36.180;2023-06-14T23:24:05;20.38;;;10.77;;
54665;SDS011;40566;50.006;36.180;2023-06-14T23:29:07;22.92;;;10.18;;
54665;SDS011;40566;50.006;36.180;2023-06-14T23:34:08;29.80;;;11.15;;
54665;SDS011;40566;50.006;36.180;2023-06-14T23:39:09;21.52;;;10.85;;
54665;SDS011;40566;50.006;36.180;2023-06-14T23:44:09;23.75;;;10.60;;
54665;SDS011;40566;50.006;36.180;2023-06-14T23:49:10;21.42;;;10.43;;
54665;SDS011;40566;50.006;36.180;2023-06-14T23:54:11;18.63;;;10.10;;
54665;SDS011;40566;50.006;36.180;2023-06-14T23:59:12;24.63;;;10.10;;
